WXForecasting.com
 BROWN COUNTY, SD  -  Wind Advisory Wind Advisory  
Aberdeen, SD - Weather Station Data
Daily Summary for October 12, 2017 Units:  Metric    English   Both
« Previous Day
Next Day »
Daily Weekly Monthly Yearly Custom
  High: Low: Average:
Temperature: 23.2 °C 8.6 °C 13.2 °C
Dew Point: 10 °C 0.6 °C 4.8 °C
Humidity: 74 % 39 % 58 %
Wind Speed: 29 km/h 0 km/h 8.7 km/h
Wind Gust: 38.6 km/h - -
Wind:- - SW
Pressure: 1018.5 hPa 1006.7 hPa -
Precipitation: 0 mm    
Historical Graphs
 
 
Tabular Data for October 12, 2017
Time Temperature Dew Point Pressure Wind Wind Speed Wind Gust Humidity Rainfall Rate (Hourly) solar Conditions
00:06 11 °C 2.2 °C 1012.4 hPa Calm   20.9 km/h 56 % 0 mm 0 W/m2
00:21 11 °C 2.8 °C 1012.4 hPa SE 4.8 km/h 17.7 km/h 57 % 0 mm 0 W/m2
00:36 10.8 °C 2.8 °C 1012.4 hPa SSW 9.7 km/h 14.5 km/h 58 % 0 mm 0 W/m2
00:51 10.8 °C 2.8 °C 1012.4 hPa SSW 4.8 km/h 16.1 km/h 58 % 0 mm 0 W/m2
01:06 10.8 °C 2.8 °C 1012.4 hPa South 11.3 km/h 19.3 km/h 59 % 0 mm 0 W/m2
01:21 11.2 °C 2.8 °C 1012.1 hPa SSW 8 km/h 24.1 km/h 57 % 0 mm 0 W/m2
01:36 11.3 °C 2.8 °C 1012.1 hPa SSE 14.5 km/h 19.3 km/h 57 % 0 mm 0 W/m2
02:07 10.9 °C 2.8 °C 1011.7 hPa South 14.5 km/h 24.1 km/h 59 % 0 mm 0 W/m2
02:21 10.6 °C 2.8 °C 1011.4 hPa SSE 4.8 km/h 16.1 km/h 60 % 0 mm 0 W/m2
02:36 10.3 °C 2.8 °C 1011.4 hPa South 1.6 km/h 22.5 km/h 61 % 0 mm 0 W/m2
02:51 10.1 °C 2.8 °C 1011.7 hPa South 14.5 km/h 20.9 km/h 62 % 0 mm 0 W/m2
03:06 9.8 °C 2.8 °C 1011.4 hPa South 6.4 km/h 20.9 km/h 63 % 0 mm 0 W/m2
03:21 9.5 °C 3.3 °C 1011.4 hPa South 8 km/h 16.1 km/h 65 % 0 mm 0 W/m2
03:36 9.3 °C 3.3 °C 1011.1 hPa South 6.4 km/h 16.1 km/h 66 % 0 mm 0 W/m2
03:51 9.3 °C 3.3 °C 1011.1 hPa Calm   16.1 km/h 66 % 0 mm 0 W/m2
04:06 9.3 °C 3.3 °C 1010.7 hPa SSW 9.7 km/h 16.1 km/h 67 % 0 mm 0 W/m2
04:21 9 °C 3.3 °C 1010.7 hPa South 1.6 km/h 12.9 km/h 68 % 0 mm 0 W/m2
04:36 8.9 °C 3.3 °C 1010.4 hPa ESE 3.2 km/h 16.1 km/h 69 % 0 mm 0 W/m2
05:21 8.7 °C 3.9 °C 1010.4 hPa SSE 1.6 km/h 16.1 km/h 71 % 0 mm 0 W/m2
05:37 8.7 °C 3.9 °C 1010.4 hPa South 8 km/h 19.3 km/h 71 % 0 mm 0 W/m2
05:52 8.8 °C 3.9 °C 1010.4 hPa SE 4.8 km/h 22.5 km/h 71 % 0 mm 0 W/m2
06:07 8.8 °C 3.9 °C 1010.4 hPa SSE 8 km/h 17.7 km/h 71 % 0 mm 0 W/m2
06:22 8.7 °C 3.9 °C 1010.4 hPa South 1.6 km/h 22.5 km/h 72 % 0 mm 0 W/m2
06:52 8.7 °C 3.9 °C 1010 hPa South 3.2 km/h 20.9 km/h 73 % 0 mm 0 W/m2
07:08 8.7 °C 3.9 °C 1009.7 hPa SSE 1.6 km/h 12.9 km/h 73 % 0 mm 0 W/m2
07:22 8.6 °C 3.9 °C 1009.7 hPa SSW 8 km/h 20.9 km/h 73 % 0 mm 0 W/m2
07:37 8.6 °C 3.9 °C 1009.7 hPa SE 6.4 km/h 16.1 km/h 73 % 0 mm 0 W/m2
07:52 8.6 °C 3.9 °C 1009.7 hPa SSW 3.2 km/h 14.5 km/h 73 % 0 mm 9 W/m2
08:07 8.6 °C 4.4 °C 1009.4 hPa SSE 11.3 km/h 19.3 km/h 74 % 0 mm 16 W/m2
08:22 8.8 °C 4.4 °C 1009.7 hPa SSW 3.2 km/h 14.5 km/h 74 % 0 mm 25 W/m2
08:37 9.1 °C 4.4 °C 1010 hPa SSE 3.2 km/h 16.1 km/h 73 % 0 mm 30 W/m2
08:52 9.6 °C 5 °C 1009.7 hPa SSW 8 km/h 16.1 km/h 72 % 0 mm 128 W/m2
09:07 10.1 °C 5 °C 1010 hPa SSW 17.7 km/h 24.1 km/h 70 % 0 mm 176 W/m2
09:22 10.6 °C 5 °C 1010 hPa South 6.4 km/h 27.4 km/h 69 % 0 mm 223 W/m2
09:37 11.2 °C 5.6 °C 1009.7 hPa South 16.1 km/h 29 km/h 68 % 0 mm 264 W/m2
09:52 12 °C 6.1 °C 1009.7 hPa South 6.4 km/h 19.3 km/h 67 % 0 mm 301 W/m2
10:07 12.7 °C 6.7 °C 1009.4 hPa SSW 4.8 km/h 27.4 km/h 67 % 0 mm 338 W/m2
10:22 12.8 °C 6.1 °C 1009.4 hPa SSE 17.7 km/h 25.7 km/h 65 % 0 mm 371 W/m2
10:38 13.1 °C 6.1 °C 1009.4 hPa SSE 8 km/h 38.6 km/h 64 % 0 mm 404 W/m2
10:52 13.5 °C 6.7 °C 1009 hPa SW 11.3 km/h 29 km/h 64 % 0 mm 436 W/m2
11:08 14.3 °C 7.2 °C 1009 hPa South 6.4 km/h 20.9 km/h 63 % 0 mm 466 W/m2
11:23 14.4 °C 7.2 °C 1008.7 hPa South 6.4 km/h 32.2 km/h 63 % 0 mm 346 W/m2
11:38 15.3 °C 7.2 °C 1008.7 hPa South 11.3 km/h 27.4 km/h 60 % 0 mm 513 W/m2
11:53 15.3 °C 7.2 °C 1008.4 hPa South 20.9 km/h 32.2 km/h 59 % 0 mm 533 W/m2
12:08 16.2 °C 7.8 °C 1008.7 hPa SSW 24.1 km/h 27.4 km/h 57 % 0 mm 547 W/m2
12:23 16.6 °C 7.8 °C 1008 hPa SSW 12.9 km/h 33.8 km/h 57 % 0 mm 559 W/m2
12:38 16.9 °C 7.8 °C 1008 hPa SE 6.4 km/h 29 km/h 56 % 0 mm 570 W/m2
12:53 17.4 °C 8.3 °C 1008 hPa South 11.3 km/h 27.4 km/h 55 % 0 mm 566 W/m2
13:08 17.9 °C 8.3 °C 1008 hPa South 29 km/h 33.8 km/h 54 % 0 mm 577 W/m2
13:23 17.9 °C 8.3 °C 1007.7 hPa South 22.5 km/h 33.8 km/h 54 % 0 mm 547 W/m2
13:38 18.2 °C 8.3 °C 1007.7 hPa SSW 12.9 km/h 27.4 km/h 54 % 0 mm 526 W/m2
13:53 18.3 °C 8.3 °C 1007.3 hPa South 16.1 km/h 32.2 km/h 53 % 0 mm 564 W/m2
14:08 18.3 °C 8.9 °C 1007.3 hPa South 4.8 km/h 24.1 km/h 55 % 0 mm 654 W/m2
14:23 19.3 °C 9.4 °C 1007.3 hPa SSE 8 km/h 25.7 km/h 53 % 0 mm 564 W/m2
14:38 20 °C 9.4 °C 1007.3 hPa SSE 14.5 km/h 37 km/h 51 % 0 mm 686 W/m2
14:53 19.4 °C 9.4 °C 1007 hPa SW 14.5 km/h 35.4 km/h 53 % 0 mm 613 W/m2
15:08 20.6 °C 9.4 °C 1007 hPa SSW 17.7 km/h 27.4 km/h 49 % 0 mm 582 W/m2
15:38 21.7 °C 10 °C 1007 hPa SW 11.3 km/h 27.4 km/h 47 % 0 mm 482 W/m2
15:54 22.1 °C 9.4 °C 1006.7 hPa South 8 km/h 30.6 km/h 44 % 0 mm 276 W/m2
16:09 22.6 °C 9.4 °C 1007 hPa South 19.3 km/h 27.4 km/h 44 % 0 mm 374 W/m2
16:24 22.8 °C 8.9 °C 1007.3 hPa SSW 11.3 km/h 29 km/h 41 % 0 mm 330 W/m2
16:39 23.2 °C 8.9 °C 1007.3 hPa SW 8 km/h 27.4 km/h 40 % 0 mm 292 W/m2
16:54 20.6 °C 6.1 °C 1008 hPa WSW 14.5 km/h 35.4 km/h 39 % 0 mm 255 W/m2
17:09 19.1 °C 5.6 °C 1008.7 hPa East 14.5 km/h 30.6 km/h 42 % 0 mm 213 W/m2
17:24 17.6 °C 6.7 °C 1009.4 hPa NW 8 km/h 29 km/h 49 % 0 mm 167 W/m2
17:39 17.1 °C 6.7 °C 1009.7 hPa NNE 12.9 km/h 30.6 km/h 50 % 0 mm 120 W/m2
17:54 16.3 °C 6.1 °C 1010.4 hPa North 8 km/h 20.9 km/h 51 % 0 mm 76 W/m2
18:09 15.8 °C 5.6 °C 1010.7 hPa SE 8 km/h 29 km/h 52 % 0 mm 40 W/m2
18:24 15.3 °C 5.6 °C 1011.4 hPa NW 6.4 km/h 22.5 km/h 53 % 0 mm 16 W/m2
18:39 14.8 °C 5.6 °C 1011.7 hPa WNW 1.6 km/h 14.5 km/h 54 % 0 mm 11 W/m2
18:54 14.6 °C 5.6 °C 1012.1 hPa WNW 3.2 km/h 19.3 km/h 55 % 0 mm 5 W/m2
19:09 14.3 °C 5.6 °C 1012.8 hPa NW 8 km/h 25.7 km/h 56 % 0 mm 0 W/m2
19:24 13.9 °C 5 °C 1012.8 hPa West 6.4 km/h 22.5 km/h 56 % 0 mm 0 W/m2
19:39 13.6 °C 4.4 °C 1013.4 hPa NW 8 km/h 25.7 km/h 55 % 0 mm 0 W/m2
19:54 13.2 °C 4.4 °C 1014.4 hPa NW 6.4 km/h 24.1 km/h 56 % 0 mm 0 W/m2
20:09 12.8 °C 4.4 °C 1014.4 hPa NW 8 km/h 14.5 km/h 57 % 0 mm 0 W/m2
20:24 12.5 °C 3.9 °C 1014.8 hPa NW 3.2 km/h 20.9 km/h 57 % 0 mm 0 W/m2
20:39 12.4 °C 2.2 °C 1015.1 hPa NW 6.4 km/h 25.7 km/h 51 % 0 mm 0 W/m2
20:54 12.3 °C 2.2 °C 1015.1 hPa NNW 6.4 km/h 22.5 km/h 50 % 0 mm 0 W/m2
21:09 12.2 °C 1.7 °C 1015.5 hPa NNW 6.4 km/h 17.7 km/h 49 % 0 mm 0 W/m2
21:24 11.9 °C 1.1 °C 1015.8 hPa NNW 14.5 km/h 19.3 km/h 48 % 0 mm 0 W/m2
21:39 11.7 °C 1.1 °C 1016.5 hPa SW 9.7 km/h 19.3 km/h 48 % 0 mm 0 W/m2
21:54 11.7 °C 1.1 °C 1016.8 hPa NW 1.6 km/h 19.3 km/h 48 % 0 mm 0 W/m2
22:09 11.7 °C 1.1 °C 1017.2 hPa North 4.8 km/h 19.3 km/h 49 % 0 mm 0 W/m2
22:24 11.3 °C 1.1 °C 1017.2 hPa NW 8 km/h 24.1 km/h 50 % 0 mm 0 W/m2
22:39 10.9 °C 1.1 °C 1017.8 hPa NW 3.2 km/h 12.9 km/h 51 % 0 mm 0 W/m2
22:54 10.4 °C 1.1 °C 1017.8 hPa NW 4.8 km/h 9.7 km/h 53 % 0 mm 0 W/m2
23:09 9.9 °C 1.1 °C 1017.8 hPa NW 3.2 km/h 12.9 km/h 54 % 0 mm 0 W/m2
23:25 9.8 °C 0.6 °C 1018.2 hPa NW 4.8 km/h 24.1 km/h 53 % 0 mm 0 W/m2
23:39 9.6 °C 0.6 °C 1018.2 hPa NNW 9.7 km/h 17.7 km/h 54 % 0 mm 0 W/m2
23:54 9.3 °C 0.6 °C 1018.5 hPa NNW 6.4 km/h 12.9 km/h 55 % 0 mm 0 W/m2
Compliments of Weather Underground - 1 mb